Glenbrook, NV

5:14 AM PDT on September 02, 2014 (GMT -0700)
Reno-Tahoe International | Change Station
CLOSE
Current Station
Airport
Location: Reno,
Elevation: 4400 ft
Nearby Weather Stations

Elev 4400 ft 39.51 °N, 119.77 °W | Updated 19 minutes ago

Clear
Clear
60 °F
Feels Like 60 °F
N
0
Wind Variable Wind from North

Today
High -- | Low -- °F
--% Chance of Precip.
Yesterday
High -- | Low -- °F
Precip. -- in
6:29 AM 7:28 PM
Waxing Crescent, 51% visible
Pressure 29.85 in
Visibility 10.0 miles
Clouds Clear
Dew Point 40 °F
Humidity 47%
Rainfall 0.00 in
Snow Depth 0 in
UV 0 out of 12
Pollen 8.20 out of 12
Air Quality Not available.
Flu Activity Not available.
METAR KRNO 021155Z 00000KT 10SM CLR 16/04 A3001 RMK AO2 SLP106 T01560044 10228 20150 53001

More Conditions Fewer Conditions

Pressure 29.85 in
Visibility 10.0 miles
Clouds Clear
Dew Point 40 °F
Humidity 47%
Rainfall 0.00 in
Snow Depth 0 in
UV 0 out of 12
Pollen 8.20 out of 12
Air Quality Not available.
Flu Activity Not available.
METAR KRNO 021155Z 00000KT 10SM CLR 16/04 A3001 RMK AO2 SLP106 T01560044 10228 20150 53001

More Conditions Fewer Conditions

10-Day Weather Forecast

Almanac

Astronomy

Sep. 02, 2014 Rise Set
Actual Time 6:29 AM PDT 7:28 PM PDT
Civil Twilight 6:02 AM PDT 7:55 PM PDT
Nautical Twilight 5:29 AM PDT 8:28 PM PDT
Astronomical Twilight 4:55 AM PDT 9:01 PM PDT
Moon 2:15 PM PDT No Moon Set
Length of Visible Light 13h 53m
Length of Day
12h 59m
Tomorrow will be 2m 27s shorter.
Waxing Crescent, 51% of the Moon is Illuminated
Today
Waxing Crescent
Sep 8
Full
Sep 15
Last Quarter
Sep 24
New
Oct 1
First Quarter

Today's Extremes

State Highs State Lows

Community

WunderPhotos

Upload Photos

1,749,638 photos uploaded!

WunderBlogs® & News

By Dr. Jeff Masters
Director of Meteorology, Weather Underground
By Kari Strenfel
Meteorologist, Weather Underground
By Christopher C. Burt
Weather Historian, Weather Underground
September 2, 2014
September 2, 2014
September 2, 2014

Nearby

Snow Depth

Station Depth Elevation
Marlette Lake 0 in 8000 ft
Big Creek Summit 1 in 8700 ft
Lewis Peak 0 in 7400 ft
Sheldon 0 in 5860 ft
Lamance Creek 1 in 6000 ft

Earthquake Activity

City Distance Mag. Time & Date
No recent earthquake activity has been reported nearby.
Minimum magnitude displayed is 2.5.

Coastal Water Temperatures

Place Temperature
No Stations Reporting

Nearby Weather Stations